sensor_id;sensor_type;location;lat;lon;timestamp;P1;durP1;ratioP1;P2;durP2;ratioP2
27839;SDS011;15207;42.182;24.308;2023-05-08T00:01:07;3.85;;;2.75;;
27839;SDS011;15207;42.182;24.308;2023-05-08T00:03:33;6.15;;;2.95;;
27839;SDS011;15207;42.182;24.308;2023-05-08T00:05:59;3.20;;;2.70;;
27839;SDS011;15207;42.182;24.308;2023-05-08T00:08:28;6.55;;;3.25;;
27839;SDS011;15207;42.182;24.308;2023-05-08T00:10:53;6.20;;;3.40;;
27839;SDS011;15207;42.182;24.308;2023-05-08T00:13:19;5.28;;;3.22;;
27839;SDS011;15207;42.182;24.308;2023-05-08T00:15:44;4.10;;;3.20;;
27839;SDS011;15207;42.182;24.308;2023-05-08T00:18:10;4.85;;;3.25;;
27839;SDS011;15207;42.182;24.308;2023-05-08T00:20:36;7.13;;;3.20;;
27839;SDS011;15207;42.182;24.308;2023-05-08T00:23:01;5.15;;;3.15;;
27839;SDS011;15207;42.182;24.308;2023-05-08T00:25:27;5.70;;;3.30;;
27839;SDS011;15207;42.182;24.308;2023-05-08T00:27:54;4.90;;;3.30;;
27839;SDS011;15207;42.182;24.308;2023-05-08T00:30:21;5.65;;;3.80;;
27839;SDS011;15207;42.182;24.308;2023-05-08T00:32:47;6.30;;;3.90;;
27839;SDS011;15207;42.182;24.308;2023-05-08T00:35:12;4.15;;;3.15;;
27839;SDS011;15207;42.182;24.308;2023-05-08T00:37:37;5.40;;;3.30;;
27839;SDS011;15207;42.182;24.308;2023-05-08T00:40:05;5.30;;;3.20;;
27839;SDS011;15207;42.182;24.308;2023-05-08T00:42:32;7.05;;;3.40;;
27839;SDS011;15207;42.182;24.308;2023-05-08T00:44:58;4.20;;;2.95;;
27839;SDS011;15207;42.182;24.308;2023-05-08T00:47:23;4.23;;;3.10;;
27839;SDS011;15207;42.182;24.308;2023-05-08T00:49:48;5.45;;;3.35;;
27839;SDS011;15207;42.182;24.308;2023-05-08T00:52:14;6.55;;;3.30;;
27839;SDS011;15207;42.182;24.308;2023-05-08T00:54:41;5.40;;;3.10;;
27839;SDS011;15207;42.182;24.308;2023-05-08T00:57:08;4.80;;;3.17;;
27839;SDS011;15207;42.182;24.308;2023-05-08T00:59:34;5.05;;;3.40;;
27839;SDS011;15207;42.182;24.308;2023-05-08T01:02:00;6.30;;;3.70;;
27839;SDS011;15207;42.182;24.308;2023-05-08T01:04:26;3.60;;;3.20;;
27839;SDS011;15207;42.182;24.308;2023-05-08T01:06:54;4.47;;;3.30;;
27839;SDS011;15207;42.182;24.308;2023-05-08T01:09:20;6.15;;;3.35;;
27839;SDS011;15207;42.182;24.308;2023-05-08T01:12:02;4.45;;;2.90;;
27839;SDS011;15207;42.182;24.308;2023-05-08T01:17:53;8.50;;;3.30;;
27839;SDS011;15207;42.182;24.308;2023-05-08T01:34:18;4.50;;;3.10;;
27839;SDS011;15207;42.182;24.308;2023-05-08T01:36:49;4.63;;;2.97;;
27839;SDS011;15207;42.182;24.308;2023-05-08T01:39:21;6.10;;;3.30;;
27839;SDS011;15207;42.182;24.308;2023-05-08T01:42:03;6.10;;;3.60;;
27839;SDS011;15207;42.182;24.308;2023-05-08T01:44:34;6.95;;;3.15;;
27839;SDS011;15207;42.182;24.308;2023-05-08T01:47:06;4.75;;;3.15;;
27839;SDS011;15207;42.182;24.308;2023-05-08T01:49:37;4.80;;;3.40;;
27839;SDS011;15207;42.182;24.308;2023-05-08T01:52:06;6.63;;;3.53;;
27839;SDS011;15207;42.182;24.308;2023-05-08T01:55:00;7.60;;;3.80;;
27839;SDS011;15207;42.182;24.308;2023-05-08T01:57:28;3.05;;;2.70;;
27839;SDS011;15207;42.182;24.308;2023-05-08T01:59:55;5.50;;;3.10;;
27839;SDS011;15207;42.182;24.308;2023-05-08T02:02:24;8.15;;;3.10;;
27839;SDS011;15207;42.182;24.308;2023-05-08T02:04:51;4.80;;;3.10;;
27839;SDS011;15207;42.182;24.308;2023-05-08T02:07:19;3.40;;;2.90;;
27839;SDS011;15207;42.182;24.308;2023-05-08T02:09:47;8.13;;;2.93;;
27839;SDS011;15207;42.182;24.308;2023-05-08T02:12:13;6.65;;;3.35;;
27839;SDS011;15207;42.182;24.308;2023-05-08T02:14:41;5.45;;;3.35;;
27839;SDS011;15207;42.182;24.308;2023-05-08T02:17:10;5.20;;;3.50;;
27839;SDS011;15207;42.182;24.308;2023-05-08T02:19:39;6.60;;;3.40;;
27839;SDS011;15207;42.182;24.308;2023-05-08T02:22:06;6.05;;;3.90;;
27839;SDS011;15207;42.182;24.308;2023-05-08T02:24:34;5.25;;;3.20;;
27839;SDS011;15207;42.182;24.308;2023-05-08T02:27:01;7.50;;;4.30;;
27839;SDS011;15207;42.182;24.308;2023-05-08T02:29:27;5.07;;;3.40;;
27839;SDS011;15207;42.182;24.308;2023-05-08T02:31:54;5.40;;;4.00;;
27839;SDS011;15207;42.182;24.308;2023-05-08T02:34:21;10.40;;;4.15;;
27839;SDS011;15207;42.182;24.308;2023-05-08T02:36:49;7.30;;;4.35;;
27839;SDS011;15207;42.182;24.308;2023-05-08T02:39:18;8.90;;;5.00;;
27839;SDS011;15207;42.182;24.308;2023-05-08T02:41:46;5.90;;;3.80;;
27839;SDS011;15207;42.182;24.308;2023-05-08T02:44:11;4.80;;;3.40;;
27839;SDS011;15207;42.182;24.308;2023-05-08T02:46:48;5.05;;;3.65;;
27839;SDS011;15207;42.182;24.308;2023-05-08T02:52:24;6.85;;;3.30;;
27839;SDS011;15207;42.182;24.308;2023-05-08T02:55:00;5.57;;;3.73;;
27839;SDS011;15207;42.182;24.308;2023-05-08T02:59:59;8.80;;;4.30;;
27839;SDS011;15207;42.182;24.308;2023-05-08T03:04:55;7.25;;;4.10;;
27839;SDS011;15207;42.182;24.308;2023-05-08T03:09:58;6.45;;;4.40;;
27839;SDS011;15207;42.182;24.308;2023-05-08T03:12:27;7.40;;;4.05;;
27839;SDS011;15207;42.182;24.308;2023-05-08T03:15:02;8.65;;;4.25;;
27839;SDS011;15207;42.182;24.308;2023-05-08T03:17:31;6.00;;;4.15;;
27839;SDS011;15207;42.182;24.308;2023-05-08T03:19:59;8.30;;;3.70;;
27839;SDS011;15207;42.182;24.308;2023-05-08T03:22:30;7.90;;;4.60;;
27839;SDS011;15207;42.182;24.308;2023-05-08T03:24:58;5.90;;;4.05;;
27839;SDS011;15207;42.182;24.308;2023-05-08T03:27:27;5.55;;;4.10;;
27839;SDS011;15207;42.182;24.308;2023-05-08T03:29:53;6.15;;;4.15;;
27839;SDS011;15207;42.182;24.308;2023-05-08T03:32:20;9.50;;;4.60;;
27839;SDS011;15207;42.182;24.308;2023-05-08T03:34:50;7.50;;;4.20;;
27839;SDS011;15207;42.182;24.308;2023-05-08T03:37:17;4.60;;;3.50;;
27839;SDS011;15207;42.182;24.308;2023-05-08T03:39:42;8.90;;;4.05;;
27839;SDS011;15207;42.182;24.308;2023-05-08T03:42:08;5.47;;;4.13;;
27839;SDS011;15207;42.182;24.308;2023-05-08T03:44:35;5.30;;;3.73;;
27839;SDS011;15207;42.182;24.308;2023-05-08T03:47:02;9.63;;;4.22;;
27839;SDS011;15207;42.182;24.308;2023-05-08T03:49:28;5.75;;;3.45;;
27839;SDS011;15207;42.182;24.308;2023-05-08T03:51:55;5.55;;;3.70;;
27839;SDS011;15207;42.182;24.308;2023-05-08T03:54:21;5.40;;;3.95;;
27839;SDS011;15207;42.182;24.308;2023-05-08T03:56:50;8.20;;;4.20;;
27839;SDS011;15207;42.182;24.308;2023-05-08T03:59:20;7.40;;;4.60;;
27839;SDS011;15207;42.182;24.308;2023-05-08T04:01:54;7.47;;;4.35;;
27839;SDS011;15207;42.182;24.308;2023-05-08T04:04:38;6.27;;;4.37;;
27839;SDS011;15207;42.182;24.308;2023-05-08T04:13:24;10.65;;;5.05;;
27839;SDS011;15207;42.182;24.308;2023-05-08T04:18:27;7.53;;;4.40;;
27839;SDS011;15207;42.182;24.308;2023-05-08T04:20:54;6.33;;;4.30;;
27839;SDS011;15207;42.182;24.308;2023-05-08T04:23:22;8.15;;;4.50;;
27839;SDS011;15207;42.182;24.308;2023-05-08T04:28:15;6.80;;;4.00;;
27839;SDS011;15207;42.182;24.308;2023-05-08T04:30:42;7.65;;;3.95;;
27839;SDS011;15207;42.182;24.308;2023-05-08T04:33:09;6.80;;;3.90;;
27839;SDS011;15207;42.182;24.308;2023-05-08T04:35:35;5.28;;;4.00;;
27839;SDS011;15207;42.182;24.308;2023-05-08T04:38:01;6.40;;;3.73;;
27839;SDS011;15207;42.182;24.308;2023-05-08T04:40:26;8.00;;;3.80;;
27839;SDS011;15207;42.182;24.308;2023-05-08T04:42:52;9.73;;;4.73;;
27839;SDS011;15207;42.182;24.308;2023-05-08T04:45:18;5.90;;;3.50;;
27839;SDS011;15207;42.182;24.308;2023-05-08T04:47:43;5.03;;;3.70;;
27839;SDS011;15207;42.182;24.308;2023-05-08T04:50:09;7.13;;;3.57;;
27839;SDS011;15207;42.182;24.308;2023-05-08T04:52:35;11.57;;;4.40;;
27839;SDS011;15207;42.182;24.308;2023-05-08T04:55:01;8.23;;;3.60;;
27839;SDS011;15207;42.182;24.308;2023-05-08T04:57:26;6.30;;;3.30;;
27839;SDS011;15207;42.182;24.308;2023-05-08T04:59:52;7.20;;;3.20;;
27839;SDS011;15207;42.182;24.308;2023-05-08T05:02:17;4.40;;;3.15;;
27839;SDS011;15207;42.182;24.308;2023-05-08T05:04:43;8.25;;;3.60;;
27839;SDS011;15207;42.182;24.308;2023-05-08T05:07:08;3.25;;;2.60;;
27839;SDS011;15207;42.182;24.308;2023-05-08T05:09:34;6.50;;;3.00;;
27839;SDS011;15207;42.182;24.308;2023-05-08T05:12:04;3.20;;;2.58;;
27839;SDS011;15207;42.182;24.308;2023-05-08T05:14:31;3.63;;;2.42;;
27839;SDS011;15207;42.182;24.308;2023-05-08T05:16:56;3.80;;;2.70;;
27839;SDS011;15207;42.182;24.308;2023-05-08T05:19:22;3.70;;;2.70;;
27839;SDS011;15207;42.182;24.308;2023-05-08T05:21:48;3.58;;;2.20;;
27839;SDS011;15207;42.182;24.308;2023-05-08T05:24:13;5.80;;;3.10;;
27839;SDS011;15207;42.182;24.308;2023-05-08T05:26:39;4.80;;;2.60;;
27839;SDS011;15207;42.182;24.308;2023-05-08T05:29:06;3.80;;;2.30;;
27839;SDS011;15207;42.182;24.308;2023-05-08T05:31:32;2.50;;;2.00;;
27839;SDS011;15207;42.182;24.308;2023-05-08T05:33:57;3.50;;;2.65;;
27839;SDS011;15207;42.182;24.308;2023-05-08T05:36:23;2.80;;;2.10;;
27839;SDS011;15207;42.182;24.308;2023-05-08T05:38:49;2.40;;;2.20;;
27839;SDS011;15207;42.182;24.308;2023-05-08T05:41:14;4.05;;;2.30;;
27839;SDS011;15207;42.182;24.308;2023-05-08T05:43:40;2.55;;;2.10;;
27839;SDS011;15207;42.182;24.308;2023-05-08T05:46:06;2.90;;;2.00;;
27839;SDS011;15207;42.182;24.308;2023-05-08T05:48:32;3.10;;;2.00;;
27839;SDS011;15207;42.182;24.308;2023-05-08T05:53:23;2.90;;;2.10;;
27839;SDS011;15207;42.182;24.308;2023-05-08T05:55:49;3.40;;;2.15;;
27839;SDS011;15207;42.182;24.308;2023-05-08T05:58:14;2.05;;;1.80;;
27839;SDS011;15207;42.182;24.308;2023-05-08T06:00:41;3.30;;;2.05;;
27839;SDS011;15207;42.182;24.308;2023-05-08T06:03:07;3.73;;;2.10;;
27839;SDS011;15207;42.182;24.308;2023-05-08T06:05:32;3.70;;;2.35;;
27839;SDS011;15207;42.182;24.308;2023-05-08T06:07:58;6.55;;;2.45;;
27839;SDS011;15207;42.182;24.308;2023-05-08T06:10:23;2.00;;;1.70;;
27839;SDS011;15207;42.182;24.308;2023-05-08T06:12:49;4.05;;;2.50;;
27839;SDS011;15207;42.182;24.308;2023-05-08T06:15:15;2.30;;;1.90;;
27839;SDS011;15207;42.182;24.308;2023-05-08T06:17:40;2.90;;;2.20;;
27839;SDS011;15207;42.182;24.308;2023-05-08T06:20:06;2.83;;;2.00;;
27839;SDS011;15207;42.182;24.308;2023-05-08T06:24:57;3.90;;;2.40;;
27839;SDS011;15207;42.182;24.308;2023-05-08T06:27:24;6.00;;;1.90;;
27839;SDS011;15207;42.182;24.308;2023-05-08T06:29:50;3.55;;;2.05;;
27839;SDS011;15207;42.182;24.308;2023-05-08T06:32:20;4.78;;;1.98;;
27839;SDS011;15207;42.182;24.308;2023-05-08T06:34:46;4.30;;;1.90;;
27839;SDS011;15207;42.182;24.308;2023-05-08T06:37:12;4.47;;;2.17;;
27839;SDS011;15207;42.182;24.308;2023-05-08T06:39:37;5.05;;;2.33;;
27839;SDS011;15207;42.182;24.308;2023-05-08T06:42:03;5.05;;;2.40;;
27839;SDS011;15207;42.182;24.308;2023-05-08T06:44:32;4.88;;;2.22;;
27839;SDS011;15207;42.182;24.308;2023-05-08T06:46:57;3.95;;;2.40;;
27839;SDS011;15207;42.182;24.308;2023-05-08T06:49:23;4.73;;;2.70;;
27839;SDS011;15207;42.182;24.308;2023-05-08T06:51:48;3.50;;;2.30;;
27839;SDS011;15207;42.182;24.308;2023-05-08T06:54:14;4.65;;;2.55;;
27839;SDS011;15207;42.182;24.308;2023-05-08T06:56:40;3.20;;;2.10;;
27839;SDS011;15207;42.182;24.308;2023-05-08T06:59:05;3.83;;;2.28;;
27839;SDS011;15207;42.182;24.308;2023-05-08T07:01:31;2.92;;;2.00;;
27839;SDS011;15207;42.182;24.308;2023-05-08T07:03:56;3.10;;;1.90;;
27839;SDS011;15207;42.182;24.308;2023-05-08T07:06:22;3.40;;;2.10;;
27839;SDS011;15207;42.182;24.308;2023-05-08T07:08:48;2.60;;;1.90;;
27839;SDS011;15207;42.182;24.308;2023-05-08T07:11:13;4.45;;;2.40;;
27839;SDS011;15207;42.182;24.308;2023-05-08T07:13:39;6.60;;;2.05;;
27839;SDS011;15207;42.182;24.308;2023-05-08T07:16:10;6.35;;;2.33;;
27839;SDS011;15207;42.182;24.308;2023-05-08T07:18:36;3.80;;;2.20;;
27839;SDS011;15207;42.182;24.308;2023-05-08T07:21:02;2.63;;;1.88;;
27839;SDS011;15207;42.182;24.308;2023-05-08T07:23:28;3.90;;;2.40;;
27839;SDS011;15207;42.182;24.308;2023-05-08T07:25:54;5.15;;;2.35;;
27839;SDS011;15207;42.182;24.308;2023-05-08T07:28:20;6.35;;;2.13;;
27839;SDS011;15207;42.182;24.308;2023-05-08T07:30:45;2.20;;;1.75;;
27839;SDS011;15207;42.182;24.308;2023-05-08T07:33:11;6.30;;;2.10;;
27839;SDS011;15207;42.182;24.308;2023-05-08T07:35:37;6.40;;;2.20;;
27839;SDS011;15207;42.182;24.308;2023-05-08T07:38:03;3.10;;;2.00;;
27839;SDS011;15207;42.182;24.308;2023-05-08T07:40:29;3.92;;;2.20;;
27839;SDS011;15207;42.182;24.308;2023-05-08T07:42:54;3.55;;;2.20;;
27839;SDS011;15207;42.182;24.308;2023-05-08T07:45:20;2.67;;;2.05;;
27839;SDS011;15207;42.182;24.308;2023-05-08T07:47:49;2.70;;;2.00;;
27839;SDS011;15207;42.182;24.308;2023-05-08T07:50:16;5.95;;;2.20;;
27839;SDS011;15207;42.182;24.308;2023-05-08T07:52:41;2.70;;;1.97;;
27839;SDS011;15207;42.182;24.308;2023-05-08T07:55:07;3.50;;;1.90;;
27839;SDS011;15207;42.182;24.308;2023-05-08T07:57:36;5.45;;;2.45;;
27839;SDS011;15207;42.182;24.308;2023-05-08T08:00:06;3.40;;;2.20;;
27839;SDS011;15207;42.182;24.308;2023-05-08T08:02:34;3.60;;;2.25;;
27839;SDS011;15207;42.182;24.308;2023-05-08T08:04:59;3.30;;;2.20;;
27839;SDS011;15207;42.182;24.308;2023-05-08T08:07:25;3.55;;;2.30;;
27839;SDS011;15207;42.182;24.308;2023-05-08T08:09:51;3.60;;;2.10;;
27839;SDS011;15207;42.182;24.308;2023-05-08T08:12:17;2.85;;;1.85;;
27839;SDS011;15207;42.182;24.308;2023-05-08T08:14:42;3.65;;;2.30;;
27839;SDS011;15207;42.182;24.308;2023-05-08T08:17:08;3.50;;;2.10;;
27839;SDS011;15207;42.182;24.308;2023-05-08T08:19:33;2.60;;;2.05;;
27839;SDS011;15207;42.182;24.308;2023-05-08T08:21:59;4.13;;;2.07;;
27839;SDS011;15207;42.182;24.308;2023-05-08T08:24:25;6.10;;;2.25;;
27839;SDS011;15207;42.182;24.308;2023-05-08T08:26:50;4.40;;;2.20;;
27839;SDS011;15207;42.182;24.308;2023-05-08T08:29:16;2.38;;;1.77;;
27839;SDS011;15207;42.182;24.308;2023-05-08T08:31:41;4.25;;;2.22;;
27839;SDS011;15207;42.182;24.308;2023-05-08T08:36:32;2.25;;;2.00;;
27839;SDS011;15207;42.182;24.308;2023-05-08T08:38:58;3.03;;;2.00;;
27839;SDS011;15207;42.182;24.308;2023-05-08T08:41:24;2.90;;;1.90;;
27839;SDS011;15207;42.182;24.308;2023-05-08T08:43:52;6.50;;;2.53;;
27839;SDS011;15207;42.182;24.308;2023-05-08T08:46:18;3.20;;;2.15;;
27839;SDS011;15207;42.182;24.308;2023-05-08T08:48:48;2.85;;;2.10;;
27839;SDS011;15207;42.182;24.308;2023-05-08T08:51:27;3.25;;;1.95;;
27839;SDS011;15207;42.182;24.308;2023-05-08T08:54:03;4.60;;;2.30;;
27839;SDS011;15207;42.182;24.308;2023-05-08T08:56:33;7.30;;;2.20;;
27839;SDS011;15207;42.182;24.308;2023-05-08T08:59:02;3.47;;;2.47;;
27839;SDS011;15207;42.182;24.308;2023-05-08T09:01:30;3.40;;;2.00;;
27839;SDS011;15207;42.182;24.308;2023-05-08T09:04:00;4.28;;;1.77;;
27839;SDS011;15207;42.182;24.308;2023-05-08T09:06:26;4.85;;;1.90;;
27839;SDS011;15207;42.182;24.308;2023-05-08T09:08:56;3.13;;;1.87;;
27839;SDS011;15207;42.182;24.308;2023-05-08T09:11:22;2.85;;;1.77;;
27839;SDS011;15207;42.182;24.308;2023-05-08T09:13:49;4.03;;;2.05;;
27839;SDS011;15207;42.182;24.308;2023-05-08T09:16:15;4.20;;;2.20;;
27839;SDS011;15207;42.182;24.308;2023-05-08T09:18:41;2.75;;;2.15;;
27839;SDS011;15207;42.182;24.308;2023-05-08T09:21:07;2.90;;;1.85;;
27839;SDS011;15207;42.182;24.308;2023-05-08T09:23:36;4.82;;;2.13;;
27839;SDS011;15207;42.182;24.308;2023-05-08T09:26:01;2.80;;;2.00;;
27839;SDS011;15207;42.182;24.308;2023-05-08T09:28:27;3.87;;;2.30;;
27839;SDS011;15207;42.182;24.308;2023-05-08T09:30:54;4.95;;;2.15;;
27839;SDS011;15207;42.182;24.308;2023-05-08T09:33:25;2.65;;;1.90;;
27839;SDS011;15207;42.182;24.308;2023-05-08T09:35:52;3.30;;;1.80;;
27839;SDS011;15207;42.182;24.308;2023-05-08T09:38:31;3.30;;;1.80;;
27839;SDS011;15207;42.182;24.308;2023-05-08T09:41:09;6.00;;;2.10;;
27839;SDS011;15207;42.182;24.308;2023-05-08T09:43:35;2.30;;;1.95;;
27839;SDS011;15207;42.182;24.308;2023-05-08T09:48:54;3.15;;;2.15;;
27839;SDS011;15207;42.182;24.308;2023-05-08T09:51:21;2.43;;;1.70;;
27839;SDS011;15207;42.182;24.308;2023-05-08T09:53:48;3.60;;;2.17;;
27839;SDS011;15207;42.182;24.308;2023-05-08T09:56:27;2.45;;;2.00;;
27839;SDS011;15207;42.182;24.308;2023-05-08T09:59:00;2.70;;;1.80;;
27839;SDS011;15207;42.182;24.308;2023-05-08T10:01:45;3.25;;;1.90;;
27839;SDS011;15207;42.182;24.308;2023-05-08T10:04:12;2.60;;;2.10;;
27839;SDS011;15207;42.182;24.308;2023-05-08T10:06:38;4.70;;;2.20;;
27839;SDS011;15207;42.182;24.308;2023-05-08T10:11:57;3.30;;;2.00;;
27839;SDS011;15207;42.182;24.308;2023-05-08T10:14:23;2.50;;;2.00;;
27839;SDS011;15207;42.182;24.308;2023-05-08T10:16:49;6.10;;;2.60;;
27839;SDS011;15207;42.182;24.308;2023-05-08T10:19:20;5.40;;;2.30;;
27839;SDS011;15207;42.182;24.308;2023-05-08T10:21:51;3.10;;;1.90;;
27839;SDS011;15207;42.182;24.308;2023-05-08T10:24:18;3.10;;;1.80;;
27839;SDS011;15207;42.182;24.308;2023-05-08T10:27:04;3.55;;;2.30;;
27839;SDS011;15207;42.182;24.308;2023-05-08T10:32:21;2.60;;;1.83;;
27839;SDS011;15207;42.182;24.308;2023-05-08T10:34:48;3.15;;;2.00;;
27839;SDS011;15207;42.182;24.308;2023-05-08T10:37:17;4.65;;;2.10;;
27839;SDS011;15207;42.182;24.308;2023-05-08T10:39:44;2.50;;;2.20;;
27839;SDS011;15207;42.182;24.308;2023-05-08T10:42:13;2.93;;;1.93;;
27839;SDS011;15207;42.182;24.308;2023-05-08T10:44:39;2.30;;;1.80;;
27839;SDS011;15207;42.182;24.308;2023-05-08T10:49:46;2.97;;;1.83;;
27839;SDS011;15207;42.182;24.308;2023-05-08T10:57:28;3.25;;;2.13;;
27839;SDS011;15207;42.182;24.308;2023-05-08T10:59:55;3.15;;;2.10;;
27839;SDS011;15207;42.182;24.308;2023-05-08T11:02:26;3.65;;;1.90;;
27839;SDS011;15207;42.182;24.308;2023-05-08T11:04:54;4.75;;;2.15;;
27839;SDS011;15207;42.182;24.308;2023-05-08T11:07:54;2.75;;;2.20;;
27839;SDS011;15207;42.182;24.308;2023-05-08T11:10:20;2.93;;;1.93;;
27839;SDS011;15207;42.182;24.308;2023-05-08T11:12:49;3.50;;;2.08;;
27839;SDS011;15207;42.182;24.308;2023-05-08T11:15:15;6.60;;;2.40;;
27839;SDS011;15207;42.182;24.308;2023-05-08T11:17:42;5.00;;;2.10;;
27839;SDS011;15207;42.182;24.308;2023-05-08T11:20:20;5.83;;;2.40;;
27839;SDS011;15207;42.182;24.308;2023-05-08T11:22:47;6.90;;;2.60;;
27839;SDS011;15207;42.182;24.308;2023-05-08T11:25:13;6.80;;;2.80;;
27839;SDS011;15207;42.182;24.308;2023-05-08T11:30:32;4.75;;;1.90;;
27839;SDS011;15207;42.182;24.308;2023-05-08T11:35:50;6.93;;;4.30;;
27839;SDS011;15207;42.182;24.308;2023-05-08T11:38:28;6.40;;;2.85;;
27839;SDS011;15207;42.182;24.308;2023-05-08T11:46:00;3.00;;;2.30;;
27839;SDS011;15207;42.182;24.308;2023-05-08T11:48:30;3.10;;;2.50;;
27839;SDS011;15207;42.182;24.308;2023-05-08T11:50:57;2.30;;;2.00;;
27839;SDS011;15207;42.182;24.308;2023-05-08T11:53:23;2.53;;;1.90;;
27839;SDS011;15207;42.182;24.308;2023-05-08T11:55:51;3.33;;;2.33;;
27839;SDS011;15207;42.182;24.308;2023-05-08T12:03:11;3.00;;;2.05;;
27839;SDS011;15207;42.182;24.308;2023-05-08T12:05:38;4.50;;;1.95;;
27839;SDS011;15207;42.182;24.308;2023-05-08T12:08:07;4.05;;;2.42;;
27839;SDS011;15207;42.182;24.308;2023-05-08T12:13:15;3.45;;;2.40;;
27839;SDS011;15207;42.182;24.308;2023-05-08T12:15:42;4.22;;;1.90;;
27839;SDS011;15207;42.182;24.308;2023-05-08T12:20:33;2.42;;;1.80;;
27839;SDS011;15207;42.182;24.308;2023-05-08T12:23:00;4.40;;;1.90;;
27839;SDS011;15207;42.182;24.308;2023-05-08T12:25:27;4.50;;;2.30;;
27839;SDS011;15207;42.182;24.308;2023-05-08T12:27:53;2.80;;;2.00;;
27839;SDS011;15207;42.182;24.308;2023-05-08T12:30:18;6.35;;;2.10;;
27839;SDS011;15207;42.182;24.308;2023-05-08T12:32:44;2.80;;;2.10;;
27839;SDS011;15207;42.182;24.308;2023-05-08T12:35:11;3.10;;;2.05;;
27839;SDS011;15207;42.182;24.308;2023-05-08T12:37:38;2.90;;;2.25;;
27839;SDS011;15207;42.182;24.308;2023-05-08T12:40:04;3.70;;;2.10;;
27839;SDS011;15207;42.182;24.308;2023-05-08T12:45:29;2.80;;;2.20;;
27839;SDS011;15207;42.182;24.308;2023-05-08T12:48:01;2.10;;;1.90;;
27839;SDS011;15207;42.182;24.308;2023-05-08T12:50:28;1.95;;;1.60;;
27839;SDS011;15207;42.182;24.308;2023-05-08T12:53:04;2.60;;;1.80;;
27839;SDS011;15207;42.182;24.308;2023-05-08T12:55:32;2.80;;;1.90;;
27839;SDS011;15207;42.182;24.308;2023-05-08T13:00:41;2.40;;;1.90;;
27839;SDS011;15207;42.182;24.308;2023-05-08T13:03:09;1.87;;;1.63;;
27839;SDS011;15207;42.182;24.308;2023-05-08T13:05:39;2.15;;;1.75;;
27839;SDS011;15207;42.182;24.308;2023-05-08T13:08:07;2.75;;;1.90;;
27839;SDS011;15207;42.182;24.308;2023-05-08T13:10:48;1.90;;;1.70;;
27839;SDS011;15207;42.182;24.308;2023-05-08T13:13:21;2.17;;;1.98;;
27839;SDS011;15207;42.182;24.308;2023-05-08T13:15:49;2.60;;;2.00;;
27839;SDS011;15207;42.182;24.308;2023-05-08T13:18:15;2.35;;;1.80;;
27839;SDS011;15207;42.182;24.308;2023-05-08T13:20:42;4.20;;;2.50;;
27839;SDS011;15207;42.182;24.308;2023-05-08T13:23:08;2.85;;;1.85;;
27839;SDS011;15207;42.182;24.308;2023-05-08T13:25:35;2.50;;;2.20;;
27839;SDS011;15207;42.182;24.308;2023-05-08T13:28:01;2.30;;;2.00;;
27839;SDS011;15207;42.182;24.308;2023-05-08T13:30:28;4.80;;;2.35;;
27839;SDS011;15207;42.182;24.308;2023-05-08T13:32:53;2.85;;;2.03;;
27839;SDS011;15207;42.182;24.308;2023-05-08T13:35:20;4.40;;;1.80;;
27839;SDS011;15207;42.182;24.308;2023-05-08T13:37:46;1.70;;;1.60;;
27839;SDS011;15207;42.182;24.308;2023-05-08T13:40:11;2.65;;;1.95;;
27839;SDS011;15207;42.182;24.308;2023-05-08T13:42:37;5.40;;;2.05;;
27839;SDS011;15207;42.182;24.308;2023-05-08T13:45:04;2.40;;;1.75;;
27839;SDS011;15207;42.182;24.308;2023-05-08T13:47:30;3.50;;;2.00;;
27839;SDS011;15207;42.182;24.308;2023-05-08T13:49:55;3.20;;;2.47;;
27839;SDS011;15207;42.182;24.308;2023-05-08T13:52:21;2.75;;;1.92;;
27839;SDS011;15207;42.182;24.308;2023-05-08T13:54:46;2.70;;;2.00;;
27839;SDS011;15207;42.182;24.308;2023-05-08T13:57:12;2.67;;;2.33;;
27839;SDS011;15207;42.182;24.308;2023-05-08T13:59:38;3.55;;;2.22;;
27839;SDS011;15207;42.182;24.308;2023-05-08T14:02:03;5.50;;;2.20;;
27839;SDS011;15207;42.182;24.308;2023-05-08T14:04:29;4.05;;;2.65;;
27839;SDS011;15207;42.182;24.308;2023-05-08T14:06:55;3.25;;;2.20;;
27839;SDS011;15207;42.182;24.308;2023-05-08T14:09:21;2.92;;;2.20;;
27839;SDS011;15207;42.182;24.308;2023-05-08T14:11:47;2.90;;;2.20;;
27839;SDS011;15207;42.182;24.308;2023-05-08T14:14:13;3.10;;;2.20;;
27839;SDS011;15207;42.182;24.308;2023-05-08T14:16:38;2.97;;;2.30;;
27839;SDS011;15207;42.182;24.308;2023-05-08T14:19:03;3.85;;;2.30;;
27839;SDS011;15207;42.182;24.308;2023-05-08T14:21:29;3.70;;;2.40;;
27839;SDS011;15207;42.182;24.308;2023-05-08T14:23:55;5.60;;;2.50;;
27839;SDS011;15207;42.182;24.308;2023-05-08T14:26:20;4.45;;;2.90;;
27839;SDS011;15207;42.182;24.308;2023-05-08T14:28:46;6.60;;;2.83;;
27839;SDS011;15207;42.182;24.308;2023-05-08T14:31:12;5.38;;;2.67;;
27839;SDS011;15207;42.182;24.308;2023-05-08T14:33:37;4.75;;;2.85;;
27839;SDS011;15207;42.182;24.308;2023-05-08T14:36:03;5.80;;;2.80;;
27839;SDS011;15207;42.182;24.308;2023-05-08T14:38:29;6.80;;;2.90;;
27839;SDS011;15207;42.182;24.308;2023-05-08T14:40:54;6.27;;;3.20;;
27839;SDS011;15207;42.182;24.308;2023-05-08T14:43:20;5.77;;;2.63;;
27839;SDS011;15207;42.182;24.308;2023-05-08T14:45:46;5.40;;;2.90;;
27839;SDS011;15207;42.182;24.308;2023-05-08T14:48:12;7.55;;;2.45;;
27839;SDS011;15207;42.182;24.308;2023-05-08T14:50:37;4.80;;;2.50;;
27839;SDS011;15207;42.182;24.308;2023-05-08T14:53:03;6.30;;;2.55;;
27839;SDS011;15207;42.182;24.308;2023-05-08T14:55:28;5.10;;;2.50;;
27839;SDS011;15207;42.182;24.308;2023-05-08T14:57:54;7.25;;;2.75;;
27839;SDS011;15207;42.182;24.308;2023-05-08T15:02:46;5.30;;;2.70;;
27839;SDS011;15207;42.182;24.308;2023-05-08T15:07:37;14.90;;;2.70;;
27839;SDS011;15207;42.182;24.308;2023-05-08T15:10:03;5.43;;;3.17;;
27839;SDS011;15207;42.182;24.308;2023-05-08T15:12:30;6.70;;;2.85;;
27839;SDS011;15207;42.182;24.308;2023-05-08T15:14:56;4.85;;;3.05;;
27839;SDS011;15207;42.182;24.308;2023-05-08T15:17:22;10.47;;;3.90;;
27839;SDS011;15207;42.182;24.308;2023-05-08T15:19:47;5.40;;;3.00;;
27839;SDS011;15207;42.182;24.308;2023-05-08T15:22:13;4.45;;;2.92;;
27839;SDS011;15207;42.182;24.308;2023-05-08T15:24:39;5.20;;;3.40;;
27839;SDS011;15207;42.182;24.308;2023-05-08T15:27:05;8.20;;;4.00;;
27839;SDS011;15207;42.182;24.308;2023-05-08T15:29:34;10.30;;;4.70;;
27839;SDS011;15207;42.182;24.308;2023-05-08T15:32:01;8.50;;;4.20;;
27839;SDS011;15207;42.182;24.308;2023-05-08T15:34:26;5.93;;;4.53;;
27839;SDS011;15207;42.182;24.308;2023-05-08T15:36:52;9.45;;;4.93;;
27839;SDS011;15207;42.182;24.308;2023-05-08T15:39:17;8.00;;;4.30;;
27839;SDS011;15207;42.182;24.308;2023-05-08T15:41:43;7.90;;;5.30;;
27839;SDS011;15207;42.182;24.308;2023-05-08T15:44:09;11.43;;;5.00;;
27839;SDS011;15207;42.182;24.308;2023-05-08T15:46:34;10.30;;;5.20;;
27839;SDS011;15207;42.182;24.308;2023-05-08T15:49:00;7.00;;;5.20;;
27839;SDS011;15207;42.182;24.308;2023-05-08T15:51:26;7.20;;;4.50;;
27839;SDS011;15207;42.182;24.308;2023-05-08T15:53:51;7.30;;;4.70;;
27839;SDS011;15207;42.182;24.308;2023-05-08T15:56:17;6.33;;;4.67;;
27839;SDS011;15207;42.182;24.308;2023-05-08T16:01:13;6.90;;;4.90;;
27839;SDS011;15207;42.182;24.308;2023-05-08T16:03:39;6.60;;;5.20;;
27839;SDS011;15207;42.182;24.308;2023-05-08T16:06:04;5.37;;;4.60;;
27839;SDS011;15207;42.182;24.308;2023-05-08T16:08:30;5.95;;;5.10;;
27839;SDS011;15207;42.182;24.308;2023-05-08T16:13:22;6.20;;;5.30;;